Arivat, Canada
Current Conditions -  °F | °C
As of 8:00 AM on Friday 24 Oct 2014 (Local Time) from CYEK Reporting Station
Haze Haze  
Wind Chill: 20°   Ceiling: 1000
Heat Index: 34°   Visibility: 6mi
Dew Point: 32°   Wind: 32mph
Humidity: 93%   Direction: 90°E
Pressure: 29.79"   Gusts: 39mph
Location:  61.11°N, 94.06°W
Report Text: CYEK 241300Z 09028G34KT 6SM BR OVC010 01/00 A2979 RMK ST8 SLP088
Loading
Personal Weather Stations






























Interactive Weather Map
Tropical Storm Tracking
New forecast layout! Learn more

10-Day Weather Forecast

Advertisements
Track Severe Weather on mobile